createdAt,value
2018-02-01T00:00:06.735Z,6.43
2018-02-01T00:02:34.235Z,3.10
2018-02-01T00:05:01.736Z,7.37
2018-02-01T00:07:29.264Z,6.57
2018-02-01T00:09:56.779Z,5.87
2018-02-01T00:12:25.057Z,5.13
2018-02-01T00:14:53.352Z,3.13
2018-02-01T00:17:20.847Z,4.60
2018-02-01T00:19:48.352Z,6.03
2018-02-01T00:22:15.885Z,6.63
2018-02-01T00:24:43.505Z,12.70
2018-02-01T00:27:11.005Z,5.70
2018-02-01T00:29:38.514Z,6.27
2018-02-01T00:32:06.154Z,5.67
2018-02-01T00:34:34.414Z,6.13
2018-02-01T00:37:01.957Z,5.40
2018-02-01T00:39:29.476Z,8.07
2018-02-01T00:41:56.981Z,6.10
2018-02-01T00:44:24.500Z,4.17
2018-02-01T00:46:51.993Z,8.13
2018-02-01T00:49:19.491Z,6.13
2018-02-01T00:51:47.006Z,5.97
2018-02-01T00:54:14.515Z,8.47
2018-02-01T00:56:42.008Z,9.57
2018-02-01T00:59:09.533Z,7.03
2018-02-01T01:01:37.029Z,4.50
2018-02-01T01:04:04.518Z,7.97
2018-02-01T01:06:32.044Z,6.47
2018-02-01T01:08:59.597Z,7.50
2018-02-01T01:11:27.081Z,7.37
2018-02-01T01:13:54.599Z,6.07
2018-02-01T01:16:22.112Z,5.83
2018-02-01T01:18:49.610Z,4.50
2018-02-01T01:21:17.129Z,10.00
2018-02-01T01:23:45.390Z,4.33
2018-02-01T01:26:12.881Z,8.73
2018-02-01T01:28:40.405Z,6.27
2018-02-01T01:31:07.919Z,5.03
2018-02-01T01:33:35.418Z,7.37
2018-02-01T01:36:03.720Z,6.03
2018-02-01T01:38:31.224Z,4.77
2018-02-01T01:40:58.714Z,9.07
2018-02-01T01:43:27.007Z,8.13
2018-02-01T01:46:10.110Z,9.10
2018-02-01T01:48:37.644Z,7.37
2018-02-01T01:51:05.155Z,9.33
2018-02-01T01:53:32.658Z,6.17
2018-02-01T01:56:00.190Z,7.30
2018-02-01T01:58:27.688Z,9.43
2018-02-01T02:00:55.205Z,6.97
2018-02-01T02:03:22.729Z,8.77
2018-02-01T02:05:50.225Z,14.17
2018-02-01T02:08:17.719Z,8.30
2018-02-01T02:10:45.234Z,8.93
2018-02-01T02:13:12.817Z,9.17
2018-02-01T02:15:40.309Z,8.83
2018-02-01T02:18:08.593Z,6.63
2018-02-01T02:20:36.095Z,6.60
2018-02-01T02:23:03.590Z,10.63
2018-02-01T02:25:31.105Z,10.43
2018-02-01T02:27:58.608Z,8.57
2018-02-01T02:30:26.115Z,8.30
2018-02-01T02:32:53.670Z,12.10
2018-02-01T02:35:21.170Z,10.00
2018-02-01T02:37:48.668Z,8.77
2018-02-01T02:40:16.204Z,14.73
2018-02-01T02:42:44.480Z,7.63
2018-02-01T02:45:11.995Z,9.93
2018-02-01T02:47:39.535Z,14.33
2018-02-01T02:50:07.041Z,12.47
2018-02-01T02:52:34.550Z,16.37
2018-02-01T02:55:02.072Z,9.63
2018-02-01T02:57:30.332Z,8.23
2018-02-01T02:59:57.832Z,11.73
2018-02-01T03:02:25.359Z,11.90
2018-02-01T03:04:52.852Z,11.47
2018-02-01T03:07:20.356Z,13.17
2018-02-01T03:09:47.885Z,11.10
2018-02-01T03:12:15.388Z,13.73
2018-02-01T03:14:42.888Z,13.77
2018-02-01T03:17:10.409Z,11.73
2018-02-01T03:19:37.894Z,19.30
2018-02-01T03:22:05.391Z,14.50
2018-02-01T03:24:32.919Z,13.07
2018-02-01T03:27:00.440Z,14.80
2018-02-01T03:29:27.938Z,15.63
2018-02-01T03:31:55.472Z,17.23
2018-02-01T03:34:23.743Z,14.73
2018-02-01T03:36:51.244Z,15.57
2018-02-01T03:39:18.772Z,14.37
2018-02-01T03:41:47.047Z,15.90
2018-02-01T03:44:14.547Z,15.07
2018-02-01T03:46:42.068Z,14.80
2018-02-01T03:49:09.564Z,13.60
2018-02-01T03:51:37.076Z,16.43
2018-02-01T03:54:04.640Z,15.10
2018-02-01T03:56:32.180Z,19.43
2018-02-01T03:59:00.487Z,16.53
2018-02-01T04:01:28.009Z,14.53
2018-02-01T04:03:55.515Z,14.77
2018-02-01T04:06:23.016Z,13.97
2018-02-01T04:08:50.541Z,14.73
2018-02-01T04:11:18.039Z,17.20
2018-02-01T04:13:46.350Z,18.20
2018-02-01T04:16:13.908Z,19.17
2018-02-01T04:18:41.573Z,18.23
2018-02-01T04:21:09.230Z,18.57
2018-02-01T04:23:36.889Z,18.20
2018-02-01T04:26:04.383Z,15.67
2018-02-01T04:28:31.993Z,16.53
2018-02-01T04:31:00.266Z,18.93
2018-02-01T04:33:28.530Z,13.77
2018-02-01T04:35:56.807Z,17.20
2018-02-01T04:38:25.112Z,17.83
2018-02-01T04:40:52.682Z,17.73
2018-02-01T04:43:20.319Z,13.63
2018-02-01T04:45:47.839Z,16.90
2018-02-01T04:48:15.336Z,15.70
2018-02-01T04:50:42.911Z,19.43
2018-02-01T04:53:10.560Z,18.30
2018-02-01T04:55:38.079Z,17.33
2018-02-01T04:58:05.587Z,12.83
2018-02-01T05:00:33.099Z,16.93
2018-02-01T05:03:00.795Z,12.87
2018-02-01T05:05:28.332Z,17.37
2018-02-01T05:07:56.623Z,15.97
2018-02-01T05:10:24.893Z,18.60
2018-02-01T05:12:53.160Z,13.67
2018-02-01T05:15:21.766Z,15.20
2018-02-01T05:17:49.280Z,16.17
2018-02-01T05:20:16.802Z,13.80
2018-02-01T05:22:44.337Z,17.77
2018-02-01T05:25:11.831Z,15.80
2018-02-01T05:27:39.340Z,17.20
2018-02-01T05:30:07.751Z,16.67
2018-02-01T05:32:35.264Z,13.40
2018-02-01T05:35:02.839Z,16.63
2018-02-01T05:37:30.359Z,14.43
2018-02-01T05:39:57.968Z,14.20
2018-02-01T05:42:26.230Z,15.67
2018-02-01T05:44:53.745Z,15.03
2018-02-01T05:47:21.250Z,17.70
2018-02-01T05:49:48.743Z,17.10
2018-02-01T05:52:16.259Z,13.23
2018-02-01T05:54:44.680Z,17.93
2018-02-01T05:57:12.192Z,13.97
2018-02-01T05:59:39.733Z,16.47
2018-02-01T06:02:07.312Z,12.73
2018-02-01T06:04:35.597Z,14.20
2018-02-01T06:07:03.884Z,17.57
2018-02-01T06:09:31.530Z,16.77
2018-02-01T06:11:59.910Z,11.30
2018-02-01T06:14:27.444Z,11.30
2018-02-01T06:16:54.960Z,15.53
2018-02-01T06:19:22.479Z,11.27
2018-02-01T06:21:50.046Z,12.97
2018-02-01T06:24:18.435Z,17.03
2018-02-01T06:26:45.952Z,13.70
2018-02-01T06:29:13.959Z,14.63
2018-02-01T06:31:41.499Z,12.03
2018-02-01T06:34:09.791Z,14.03
2018-02-01T06:36:38.410Z,14.13
2018-02-01T06:39:05.946Z,13.23
2018-02-01T06:41:33.468Z,15.27
2018-02-01T06:44:01.264Z,11.07
2018-02-01T06:46:28.760Z,17.93
2018-02-01T06:48:56.250Z,12.43
2018-02-01T06:51:24.535Z,12.10
2018-02-01T06:53:52.822Z,15.77
2018-02-01T06:56:20.313Z,9.50
2018-02-01T06:58:47.943Z,11.73
2018-02-01T07:01:18.924Z,13.23
2018-02-01T07:03:46.549Z,13.80
2018-02-01T07:06:14.089Z,13.17
2018-02-01T07:08:41.599Z,15.43
2018-02-01T07:11:09.168Z,14.00
2018-02-01T07:13:36.981Z,12.43
2018-02-01T07:16:05.239Z,12.33
2018-02-01T07:18:33.502Z,14.53
2018-02-01T07:21:01.014Z,11.83
2018-02-01T07:23:28.569Z,16.13
2018-02-01T07:25:56.840Z,11.77
2018-02-01T07:28:24.383Z,14.80
2018-02-01T07:30:51.888Z,18.13
2018-02-01T07:33:19.497Z,13.93
2018-02-01T07:35:47.021Z,13.83
2018-02-01T07:38:14.529Z,17.57
2018-02-01T07:40:42.100Z,15.23
2018-02-01T07:43:09.635Z,15.70
2018-02-01T07:45:53.663Z,17.27
2018-02-01T07:48:22.063Z,15.87
2018-02-01T07:50:49.573Z,17.80
2018-02-01T07:53:17.072Z,15.63
2018-02-01T07:55:44.830Z,18.43
2018-02-01T07:58:13.090Z,17.87
2018-02-01T08:00:40.601Z,14.53
2018-02-01T08:03:08.133Z,16.13
2018-02-01T08:05:35.640Z,18.63
2018-02-01T08:08:03.247Z,17.43
2018-02-01T08:10:30.775Z,15.77
2018-02-01T08:12:58.280Z,21.77
2018-02-01T08:15:25.812Z,23.10
2018-02-01T08:17:53.353Z,18.53
2018-02-01T08:20:21.644Z,15.40
2018-02-01T08:22:49.919Z,19.63
2018-02-01T08:25:18.214Z,17.67
2018-02-01T08:27:45.723Z,17.27
2018-02-01T08:30:13.252Z,19.33
2018-02-01T08:32:40.774Z,19.43
2018-02-01T08:35:08.301Z,19.60
2018-02-01T08:37:36.602Z,19.27
2018-02-01T08:40:04.888Z,18.23
2018-02-01T08:42:33.164Z,24.07
2018-02-01T08:45:01.420Z,22.13
2018-02-01T08:47:29.033Z,22.57
2018-02-01T08:49:56.646Z,25.37
2018-02-01T08:52:24.947Z,23.10
2018-02-01T08:54:52.492Z,21.27
2018-02-01T08:57:19.990Z,26.33
2018-02-01T08:59:47.520Z,23.40
2018-02-01T09:02:15.076Z,22.87
2018-02-01T09:04:42.581Z,25.03
2018-02-01T09:07:10.196Z,22.13
2018-02-01T09:09:37.822Z,20.93
2018-02-01T09:12:05.386Z,25.07
2018-02-01T09:14:32.882Z,24.87
2018-02-01T09:17:00.390Z,27.87
2018-02-01T09:19:27.886Z,23.73
2018-02-01T09:21:55.426Z,17.40
2018-02-01T09:24:23.725Z,20.43
2018-02-01T09:26:51.294Z,20.50
2018-02-01T09:29:18.862Z,24.00
2018-02-01T09:31:46.370Z,24.47
2018-02-01T09:34:14.746Z,25.00
2018-02-01T09:36:42.248Z,26.30
2018-02-01T09:39:09.775Z,26.67
2018-02-01T09:41:38.167Z,22.23
2018-02-01T09:44:05.712Z,24.20
2018-02-01T09:46:34.028Z,26.10
2018-02-01T09:49:01.521Z,19.63
2018-02-01T09:51:30.556Z,26.50
2018-02-01T09:53:58.067Z,20.57
2018-02-01T09:56:25.774Z,18.97
2018-02-01T09:58:53.318Z,20.70
2018-02-01T10:01:20.865Z,24.40
2018-02-01T10:03:48.379Z,21.07
2018-02-01T10:06:15.884Z,18.13
2018-02-01T10:08:43.463Z,24.47
2018-02-01T10:11:11.714Z,26.80
2018-02-01T10:13:39.215Z,21.57
2018-02-01T10:16:06.750Z,21.60
2018-02-01T10:18:34.249Z,17.87
2018-02-01T10:21:01.738Z,19.73
2018-02-01T10:23:29.268Z,16.83
2018-02-01T10:25:56.774Z,15.70
2018-02-01T10:28:24.327Z,12.97
2018-02-01T10:30:52.626Z,15.43
2018-02-01T10:33:20.136Z,17.30
2018-02-01T10:35:47.729Z,16.83
2018-02-01T10:38:15.499Z,16.07
2018-02-01T10:40:43.039Z,17.63
2018-02-01T10:43:11.337Z,15.47
2018-02-01T10:45:39.622Z,14.33
2018-02-01T10:48:07.138Z,14.53
2018-02-01T10:50:34.648Z,14.57
2018-02-01T10:53:02.207Z,16.90
2018-02-01T10:55:29.700Z,14.80
2018-02-01T10:57:57.204Z,15.80
2018-02-01T11:00:24.720Z,15.83
2018-02-01T11:02:52.214Z,16.87
2018-02-01T11:05:19.707Z,15.00
2018-02-01T11:07:47.212Z,11.00
2018-02-01T11:10:14.703Z,21.97
2018-02-01T11:12:42.215Z,18.10
2018-02-01T11:15:09.737Z,13.00
2018-02-01T11:17:37.252Z,14.73
2018-02-01T11:20:05.516Z,14.50
2018-02-01T11:22:33.056Z,12.77
2018-02-01T11:25:00.559Z,13.60
2018-02-01T11:27:28.825Z,17.67
2018-02-01T11:29:56.362Z,19.57
2018-02-01T11:32:23.868Z,15.50
2018-02-01T11:34:51.384Z,17.83
2018-02-01T11:37:18.977Z,17.80
2018-02-01T11:39:46.485Z,16.17
2018-02-01T11:42:13.998Z,17.83
2018-02-01T11:44:41.547Z,21.83
2018-02-01T11:47:09.070Z,16.10
2018-02-01T11:49:36.609Z,16.67
2018-02-01T11:52:04.126Z,15.00
2018-02-01T11:54:31.626Z,20.47
2018-02-01T11:56:59.129Z,11.43
2018-02-01T11:59:27.418Z,13.33
2018-02-01T12:01:55.722Z,14.83
2018-02-01T12:04:23.227Z,12.70
2018-02-01T12:06:50.772Z,18.47
2018-02-01T12:09:19.053Z,11.63
2018-02-01T12:11:46.555Z,13.93
2018-02-01T12:14:14.072Z,11.53
2018-02-01T12:16:42.336Z,11.90
2018-02-01T12:19:09.860Z,11.40
2018-02-01T12:21:37.382Z,11.43
2018-02-01T12:24:04.872Z,10.20
2018-02-01T12:26:32.358Z,12.70
2018-02-01T12:28:59.866Z,12.47
2018-02-01T12:31:27.415Z,11.27
2018-02-01T12:33:54.935Z,13.87
2018-02-01T12:36:23.390Z,11.90
2018-02-01T12:38:50.908Z,11.43
2018-02-01T12:41:19.176Z,11.57
2018-02-01T12:43:47.593Z,10.60
2018-02-01T12:46:15.098Z,8.63
2018-02-01T12:48:42.702Z,9.10
2018-02-01T12:51:10.233Z,12.10
2018-02-01T12:53:37.736Z,11.67
2018-02-01T12:56:05.232Z,7.80
2018-02-01T12:58:32.772Z,10.37
2018-02-01T13:01:00.352Z,8.87
2018-02-01T13:03:27.853Z,9.20
2018-02-01T13:05:55.469Z,9.23
2018-02-01T13:08:22.981Z,8.50
2018-02-01T13:10:50.474Z,10.70
2018-02-01T13:13:17.998Z,9.07
2018-02-01T13:15:45.491Z,11.77
2018-02-01T13:18:13.004Z,8.80
2018-02-01T13:20:40.516Z,13.47
2018-02-01T13:23:08.005Z,11.13
2018-02-01T13:25:35.508Z,12.27
2018-02-01T13:28:03.040Z,11.83
2018-02-01T13:30:30.528Z,9.87
2018-02-01T13:32:58.024Z,11.20
2018-02-01T13:35:26.302Z,14.67
2018-02-01T13:37:54.560Z,16.57
2018-02-01T13:40:22.856Z,13.73
2018-02-01T13:42:51.136Z,13.47
2018-02-01T13:45:18.652Z,11.27
2018-02-01T13:47:46.152Z,12.23
2018-02-01T13:50:13.667Z,12.13
2018-02-01T13:52:41.161Z,12.40
2018-02-01T13:55:09.432Z,12.37
2018-02-01T13:57:37.713Z,12.27
2018-02-01T14:00:05.971Z,14.40
2018-02-01T14:02:34.274Z,11.73
2018-02-01T14:05:01.805Z,9.60
2018-02-01T14:07:29.340Z,13.17
2018-02-01T14:09:56.836Z,12.53
2018-02-01T14:12:25.141Z,10.77
2018-02-01T14:14:52.661Z,10.73
2018-02-01T14:17:20.149Z,9.20
2018-02-01T14:19:47.671Z,11.13
2018-02-01T14:22:15.945Z,10.30
2018-02-01T14:24:44.220Z,12.60
2018-02-01T14:27:11.737Z,12.47
2018-02-01T14:29:39.231Z,11.97
2018-02-01T14:32:06.711Z,10.00
2018-02-01T14:34:34.555Z,10.90
2018-02-01T14:37:02.054Z,11.07
2018-02-01T14:39:29.604Z,10.97
2018-02-01T14:41:57.108Z,11.63
2018-02-01T14:44:24.600Z,10.70
2018-02-01T14:46:52.868Z,10.27
2018-02-01T14:49:21.150Z,10.33
2018-02-01T14:51:49.419Z,11.53
2018-02-01T14:54:17.694Z,10.57
2018-02-01T14:56:45.980Z,14.00
2018-02-01T14:59:14.268Z,10.40
2018-02-01T15:01:41.789Z,11.83
2018-02-01T15:04:09.307Z,11.53
2018-02-01T15:06:36.804Z,11.33
2018-02-01T15:09:04.317Z,9.40
2018-02-01T15:11:31.852Z,13.17
2018-02-01T15:13:59.354Z,11.63
2018-02-01T15:16:26.901Z,11.68
2018-02-01T15:18:54.423Z,13.13
2018-02-01T15:21:22.687Z,11.83
2018-02-01T15:23:50.960Z,7.57
2018-02-01T15:26:19.252Z,9.50
2018-02-01T15:28:47.540Z,10.90
2018-02-01T15:31:15.061Z,8.97
2018-02-01T15:33:42.583Z,10.43
2018-02-01T15:36:10.095Z,9.83
2018-02-01T15:38:38.492Z,8.90
2018-02-01T15:41:05.998Z,11.03
2018-02-01T15:43:33.500Z,12.57
2018-02-01T15:46:01.816Z,13.03
2018-02-01T15:48:29.440Z,9.00
2018-02-01T15:50:57.690Z,8.23
2018-02-01T15:53:25.184Z,8.93
2018-02-01T15:55:52.724Z,10.63
2018-02-01T15:58:20.227Z,10.10
2018-02-01T16:00:47.728Z,10.10
2018-02-01T16:03:16.038Z,11.27
2018-02-01T16:05:43.530Z,11.47
2018-02-01T16:08:11.063Z,10.10
2018-02-01T16:10:38.725Z,10.90
2018-02-01T16:13:06.211Z,9.57
2018-02-01T16:15:33.822Z,10.10
2018-02-01T16:18:01.354Z,9.67
2018-02-01T16:20:29.636Z,12.30
2018-02-01T16:22:57.890Z,9.63
2018-02-01T16:25:25.415Z,10.37
2018-02-01T16:27:52.945Z,9.73
2018-02-01T16:30:20.449Z,10.00
2018-02-01T16:32:47.992Z,10.00
2018-02-01T16:35:15.491Z,9.00
2018-02-01T16:37:42.997Z,10.07
2018-02-01T16:40:10.528Z,10.87
2018-02-01T16:42:38.813Z,10.13
2018-02-01T16:45:07.101Z,9.30
2018-02-01T16:47:34.619Z,9.30
2018-02-01T16:50:32.165Z,9.57
2018-02-01T16:52:59.712Z,9.93
2018-02-01T16:55:28.020Z,9.40
2018-02-01T16:57:56.282Z,8.90
2018-02-01T17:00:23.804Z,9.40
2018-02-01T17:02:51.290Z,10.20
2018-02-01T17:05:20.312Z,10.47
2018-02-01T17:07:48.590Z,9.30
2018-02-01T17:10:16.858Z,9.70
2018-02-01T17:12:45.140Z,10.17
2018-02-01T17:15:12.685Z,11.60
2018-02-01T17:17:40.186Z,10.63
2018-02-01T17:20:07.682Z,9.03
2018-02-01T17:22:35.192Z,10.63
2018-02-01T17:25:02.683Z,10.53
2018-02-01T17:27:30.243Z,10.33
2018-02-01T17:29:57.851Z,9.97
2018-02-01T17:32:25.347Z,11.37
2018-02-01T17:34:52.865Z,12.23
2018-02-01T17:37:21.173Z,12.20
2018-02-01T17:39:48.663Z,11.30
2018-02-01T17:42:16.193Z,14.23
2018-02-01T17:44:43.718Z,11.80
2018-02-01T17:47:12.065Z,14.37
2018-02-01T17:49:39.578Z,11.43
2018-02-01T17:52:07.133Z,16.47
2018-02-01T17:54:34.635Z,12.80
2018-02-01T17:57:02.131Z,13.03
2018-02-01T17:59:29.673Z,13.03
2018-02-01T18:01:57.974Z,12.87
2018-02-01T18:04:25.504Z,13.53
2018-02-01T18:06:53.026Z,16.33
2018-02-01T18:09:20.533Z,13.27
2018-02-01T18:11:48.119Z,16.13
2018-02-01T18:14:15.764Z,14.43
2018-02-01T18:16:44.034Z,15.10
2018-02-01T18:19:11.848Z,16.07
2018-02-01T18:21:39.375Z,15.97
2018-02-01T18:24:06.896Z,16.23
2018-02-01T18:26:34.420Z,17.33
2018-02-01T18:29:01.983Z,15.43
2018-02-01T18:31:29.516Z,18.07
2018-02-01T18:33:57.024Z,15.60
2018-02-01T18:36:24.550Z,18.27
2018-02-01T18:38:52.053Z,18.23
2018-02-01T18:41:20.365Z,19.13
2018-02-01T18:43:47.894Z,17.97
2018-02-01T18:46:16.169Z,17.50
2018-02-01T18:48:44.449Z,19.70
2018-02-01T18:51:12.757Z,19.63
2018-02-01T18:53:40.301Z,19.57
2018-02-01T18:56:07.988Z,19.13
2018-02-01T18:58:35.569Z,20.10
2018-02-01T19:01:03.172Z,23.50
2018-02-01T19:03:30.697Z,23.00
2018-02-01T19:05:58.284Z,18.97
2018-02-01T19:08:26.565Z,19.57
2018-02-01T19:10:54.082Z,23.47
2018-02-01T19:13:21.643Z,21.47
2018-02-01T19:15:49.179Z,22.77
2018-02-01T19:18:16.728Z,24.20
2018-02-01T19:20:44.306Z,21.53
2018-02-01T19:23:11.855Z,26.00
2018-02-01T19:25:39.380Z,21.40
2018-02-01T19:28:07.071Z,22.43
2018-02-01T19:30:34.718Z,20.57
2018-02-01T19:33:02.286Z,24.07
2018-02-01T19:35:29.864Z,21.00
2018-02-01T19:37:57.431Z,25.10
2018-02-01T19:40:24.986Z,22.60
2018-02-01T19:42:52.569Z,20.47
2018-02-01T19:45:21.094Z,22.70
2018-02-01T19:47:48.662Z,25.53
2018-02-01T19:50:16.604Z,23.40
2018-02-01T19:52:44.166Z,21.67
2018-02-01T19:55:11.818Z,21.27
2018-02-01T19:57:40.139Z,19.77
2018-02-01T20:00:07.750Z,18.50
2018-02-01T20:02:36.063Z,22.07
2018-02-01T20:05:04.660Z,21.23
2018-02-01T20:20:27.277Z,20.83
2018-02-01T20:22:54.935Z,26.63
2018-02-01T20:25:22.481Z,22.30
2018-02-01T20:27:50.053Z,24.43
2018-02-01T20:30:17.658Z,21.67
2018-02-01T20:32:45.656Z,24.30
2018-02-01T20:35:13.488Z,21.10
2018-02-01T20:37:41.418Z,22.07
2018-02-01T20:40:09.541Z,21.73
2018-02-01T20:42:37.925Z,23.40
2018-02-01T20:45:05.727Z,21.13
2018-02-01T20:57:13.381Z,20.30
2018-02-01T20:59:40.967Z,21.07
2018-02-01T21:02:08.561Z,29.30
2018-02-01T21:04:36.959Z,16.57
2018-02-01T21:07:04.523Z,16.90
2018-02-01T21:09:32.050Z,22.10
2018-02-01T21:12:00.531Z,20.00
2018-02-01T21:14:28.060Z,18.83
2018-02-01T21:16:55.615Z,22.17
2018-02-01T21:19:23.203Z,19.50
2018-02-01T21:21:50.735Z,19.10
2018-02-01T21:24:18.300Z,18.20
2018-02-01T21:26:45.876Z,16.77
2018-02-01T21:29:13.458Z,15.13
2018-02-01T21:31:41.006Z,16.83
2018-02-01T21:34:09.363Z,21.00
2018-02-01T21:36:36.898Z,19.73
2018-02-01T21:39:04.781Z,19.57
2018-02-01T21:41:32.331Z,18.00
2018-02-01T21:43:59.870Z,17.23
2018-02-01T21:46:27.405Z,16.40
2018-02-01T21:48:55.754Z,16.70
2018-02-01T21:51:23.286Z,14.23
2018-02-01T21:53:50.839Z,15.87
2018-02-01T21:56:18.416Z,13.43
2018-02-01T21:58:45.951Z,13.57
2018-02-01T22:01:13.482Z,16.47
2018-02-01T22:03:41.045Z,17.57
2018-02-01T22:06:08.599Z,12.83
2018-02-01T22:08:36.099Z,14.13
2018-02-01T22:11:03.610Z,15.27
2018-02-01T22:13:31.137Z,15.50
2018-02-01T22:15:58.823Z,18.60
2018-02-01T22:18:27.365Z,14.83
2018-02-01T22:20:54.864Z,12.60
2018-02-01T22:23:22.382Z,17.87
2018-02-01T22:25:49.930Z,16.20
2018-02-01T22:28:17.427Z,14.37
2018-02-01T22:30:45.707Z,12.73
2018-02-01T22:33:14.004Z,12.87
2018-02-01T22:35:41.538Z,14.53
2018-02-01T22:38:09.808Z,18.03
2018-02-01T22:40:37.338Z,16.13
2018-02-01T22:43:04.837Z,14.20
2018-02-01T22:45:33.120Z,13.77
2018-02-01T22:48:01.419Z,12.33
2018-02-01T22:50:28.949Z,16.37
2018-02-01T22:52:57.237Z,9.67
2018-02-01T22:55:25.529Z,16.33
2018-02-01T22:57:53.042Z,17.33
2018-02-01T23:00:20.543Z,11.93
2018-02-01T23:02:48.084Z,14.03
2018-02-01T23:05:16.355Z,13.30
2018-02-01T23:07:44.649Z,15.87
2018-02-01T23:10:12.187Z,14.43
2018-02-01T23:12:39.693Z,16.10
2018-02-01T23:15:07.198Z,13.70
2018-02-01T23:17:34.740Z,14.33
2018-02-01T23:20:02.235Z,12.87
2018-02-01T23:22:29.760Z,14.10
2018-02-01T23:24:57.283Z,14.50
2018-02-01T23:27:24.773Z,18.40
2018-02-01T23:29:52.295Z,18.73
2018-02-01T23:32:19.818Z,13.93
2018-02-01T23:34:47.325Z,15.27
2018-02-01T23:37:14.820Z,14.10
2018-02-01T23:39:42.773Z,20.70
2018-02-01T23:42:10.271Z,15.90
2018-02-01T23:44:37.777Z,19.50
2018-02-01T23:47:05.308Z,14.30
2018-02-01T23:49:32.820Z,16.10
2018-02-01T23:52:01.090Z,18.33
2018-02-01T23:54:29.395Z,15.17
2018-02-01T23:56:56.944Z,17.47
2018-02-01T23:59:24.438Z,15.67
